Time;durP1;ratioP1;P1;durP2;ratioP2;P2;SDS_P1;SDS_P2;PMS_P1;PMS_P2;Temp;Humidity;BMP_temperature;BMP_pressure;BME280_temperature;BME280_humidity;BME280_pressure;Samples;Min_cycle;Max_cycle;Signal;HPM_P1;HPM_P2
2021/07/19 00:02:08;;;;;;;4.10;2.53;;;;;;;;;;5074007;28;20176;-83
2021/07/19 00:04:41;;;;;;;3.10;2.80;;;;;;;;;;5091858;28;20260;-83
2021/07/19 00:07:07;;;;;;;4.00;2.40;;;;;;;;;;5072878;28;20553;-84
2021/07/19 00:09:34;;;;;;;4.13;2.90;;;;;;;;;;5073989;28;20278;-84
2021/07/19 00:12:01;;;;;;;3.03;2.47;;;;;;;;;;5092009;28;20164;-83
2021/07/19 00:14:27;;;;;;;2.90;2.60;;;;;;;;;;5073658;28;20186;-83
2021/07/19 00:16:54;;;;;;;3.10;2.80;;;;;;;;;;5073407;28;20638;-84
2021/07/19 00:19:20;;;;;;;4.23;3.30;;;;;;;;;;5073779;28;20324;-83
2021/07/19 00:21:46;;;;;;;3.37;2.63;;;;;;;;;;5072688;28;20179;-83
2021/07/19 00:24:12;;;;;;;2.97;2.67;;;;;;;;;;5073278;28;20200;-83
2021/07/19 00:26:38;;;;;;;4.43;3.00;;;;;;;;;;5073375;28;20559;-83
2021/07/19 00:29:04;;;;;;;5.10;3.17;;;;;;;;;;5091613;28;20166;-83
2021/07/19 00:31:34;;;;;;;4.43;3.40;;;;;;;;;;5072787;28;20179;-83
2021/07/19 00:34:01;;;;;;;3.13;2.83;;;;;;;;;;5072911;28;20183;-83
2021/07/19 00:36:28;;;;;;;3.60;2.40;;;;;;;;;;5094495;28;20177;-83
2021/07/19 00:38:54;;;;;;;4.60;2.73;;;;;;;;;;5076521;28;20701;-83
2021/07/19 00:41:21;;;;;;;3.00;2.70;;;;;;;;;;5076801;28;20302;-83
2021/07/19 00:43:47;;;;;;;3.20;2.90;;;;;;;;;;5076163;28;20214;-83
2021/07/19 00:46:13;;;;;;;2.80;2.50;;;;;;;;;;5076507;28;20634;-83
2021/07/19 00:48:39;;;;;;;3.30;2.87;;;;;;;;;;5094808;28;20176;-83
2021/07/19 00:51:05;;;;;;;3.37;2.50;;;;;;;;;;5094626;28;20168;-83
2021/07/19 00:53:31;;;;;;;2.73;2.53;;;;;;;;;;5076437;28;20183;-83
2021/07/19 00:55:59;;;;;;;3.73;2.80;;;;;;;;;;5076068;28;20220;-84
2021/07/19 00:58:30;;;;;;;3.87;2.73;;;;;;;;;;5076201;28;20176;-83
2021/07/19 01:00:57;;;;;;;3.40;3.10;;;;;;;;;;5075863;28;20176;-83
2021/07/19 01:03:24;;;;;;;3.90;2.93;;;;;;;;;;5076116;28;20212;-83
2021/07/19 01:05:51;;;;;;;3.77;2.73;;;;;;;;;;5075657;28;20244;-83
2021/07/19 01:08:20;;;;;;;3.10;2.70;;;;;;;;;;5094177;28;20550;-84
2021/07/19 01:10:47;;;;;;;3.53;2.60;;;;;;;;;;5075632;28;20555;-83
2021/07/19 01:13:13;;;;;;;3.20;2.63;;;;;;;;;;5075952;28;20181;-83
2021/07/19 01:15:40;;;;;;;3.40;2.67;;;;;;;;;;5094155;28;20183;-83
2021/07/19 01:18:06;;;;;;;3.90;2.73;;;;;;;;;;5075672;28;20176;-83
2021/07/19 01:20:38;;;;;;;3.33;3.03;;;;;;;;;;5075830;28;20184;-83
2021/07/19 01:23:31;;;;;;;2.93;2.60;;;;;;;;;;5093406;28;20179;-83
2021/07/19 01:26:03;;;;;;;4.37;2.90;;;;;;;;;;5075757;28;20293;-83
2021/07/19 01:28:42;;;;;;;4.73;3.17;;;;;;;;;;5075865;28;20172;-83
2021/07/19 01:31:19;;;;;;;4.82;2.88;;;;;;;;;;5075216;28;20433;-83
2021/07/19 01:33:46;;;;;;;2.63;2.43;;;;;;;;;;5075560;28;20171;-81
2021/07/19 01:36:16;;;;;;;3.07;2.80;;;;;;;;;;5075052;28;20176;-84
2021/07/19 01:38:42;;;;;;;3.50;2.73;;;;;;;;;;5075440;28;20171;-83
2021/07/19 01:41:09;;;;;;;2.97;2.67;;;;;;;;;;5093553;28;20167;-84
2021/07/19 01:43:35;;;;;;;2.63;2.43;;;;;;;;;;5075246;28;20240;-82
2021/07/19 01:46:02;;;;;;;3.40;3.10;;;;;;;;;;5092426;28;20169;-80
2021/07/19 01:48:30;;;;;;;4.67;2.80;;;;;;;;;;5075333;28;20172;-83
2021/07/19 01:50:57;;;;;;;4.80;3.27;;;;;;;;;;5074732;28;20176;-83
2021/07/19 01:53:23;;;;;;;3.57;3.00;;;;;;;;;;5075052;28;20184;-83
2021/07/19 01:55:50;;;;;;;2.90;2.70;;;;;;;;;;5074987;28;20223;-82
2021/07/19 01:58:16;;;;;;;3.90;2.60;;;;;;;;;;5074849;28;20205;-83
2021/07/19 02:00:42;;;;;;;3.50;2.73;;;;;;;;;;5092956;28;20178;-83
2021/07/19 02:03:09;;;;;;;3.13;2.60;;;;;;;;;;5074456;28;20240;-83
2021/07/19 02:05:35;;;;;;;4.80;2.80;;;;;;;;;;5075208;28;20606;-82
2021/07/19 02:08:02;;;;;;;2.87;2.67;;;;;;;;;;5074247;28;20222;-83
2021/07/19 02:10:28;;;;;;;3.20;2.90;;;;;;;;;;5074814;28;20164;-83
2021/07/19 02:12:56;;;;;;;3.03;2.73;;;;;;;;;;5074537;28;20284;-83
2021/07/19 02:15:22;;;;;;;3.87;2.80;;;;;;;;;;5092799;28;20238;-82
2021/07/19 02:17:50;;;;;;;3.90;2.90;;;;;;;;;;5092814;28;20209;-83
2021/07/19 02:20:16;;;;;;;2.77;2.17;;;;;;;;;;5074662;28;20183;-83
2021/07/19 02:22:44;;;;;;;4.10;3.07;;;;;;;;;;5074207;28;20177;-83
2021/07/19 02:25:11;;;;;;;6.80;2.73;;;;;;;;;;5092352;28;20245;-82
2021/07/19 02:27:39;;;;;;;2.77;2.53;;;;;;;;;;5074061;28;20182;-81
2021/07/19 02:30:06;;;;;;;3.77;3.23;;;;;;;;;;5092287;28;20174;-83
2021/07/19 02:32:33;;;;;;;3.77;2.87;;;;;;;;;;5074095;28;20178;-83
2021/07/19 02:34:59;;;;;;;2.87;2.57;;;;;;;;;;5073950;28;20186;-83
2021/07/19 02:37:25;;;;;;;2.87;2.53;;;;;;;;;;5073548;28;20184;-83
2021/07/19 02:39:51;;;;;;;4.07;2.90;;;;;;;;;;5092449;28;20173;-82
2021/07/19 02:42:19;;;;;;;3.40;2.67;;;;;;;;;;5092381;28;20181;-82
2021/07/19 02:44:45;;;;;;;5.43;3.13;;;;;;;;;;5073605;28;20223;-82
2021/07/19 02:47:11;;;;;;;3.40;2.70;;;;;;;;;;5073770;28;20246;-82
2021/07/19 02:49:38;;;;;;;4.17;3.27;;;;;;;;;;5091900;28;20197;-82
2021/07/19 02:52:05;;;;;;;6.10;3.27;;;;;;;;;;5073569;28;20621;-82
2021/07/19 02:54:31;;;;;;;4.37;2.80;;;;;;;;;;5073519;28;20415;-82
2021/07/19 02:56:58;;;;;;;4.13;3.00;;;;;;;;;;5073520;28;20180;-82
2021/07/19 02:59:24;;;;;;;4.23;3.13;;;;;;;;;;5073709;28;20194;-82
2021/07/19 03:01:53;;;;;;;5.43;3.20;;;;;;;;;;5091706;28;20203;-82
2021/07/19 03:04:19;;;;;;;2.70;2.50;;;;;;;;;;5091458;28;20205;-82
2021/07/19 03:06:46;;;;;;;3.60;3.07;;;;;;;;;;5073076;28;20193;-83
2021/07/19 03:09:12;;;;;;;3.37;3.07;;;;;;;;;;5073559;28;20232;-82
2021/07/19 03:11:40;;;;;;;3.93;3.00;;;;;;;;;;5073697;28;20201;-82
2021/07/19 03:14:08;;;;;;;3.27;2.80;;;;;;;;;;5056807;28;20181;-83
2021/07/19 03:16:35;;;;;;;5.67;2.87;;;;;;;;;;5091699;28;20173;-82
2021/07/19 03:19:03;;;;;;;3.27;2.97;;;;;;;;;;5091859;28;20169;-83
2021/07/19 03:21:30;;;;;;;4.07;3.20;;;;;;;;;;5073969;28;20182;-83
2021/07/19 03:23:57;;;;;;;3.00;2.67;;;;;;;;;;5073438;28;20566;-83
2021/07/19 03:26:24;;;;;;;4.73;3.13;;;;;;;;;;5073735;28;20179;-83
2021/07/19 03:28:50;;;;;;;3.40;3.10;;;;;;;;;;5074020;28;20268;-82
2021/07/19 03:31:17;;;;;;;3.53;3.23;;;;;;;;;;5073629;28;20951;-83
2021/07/19 03:33:43;;;;;;;2.97;2.77;;;;;;;;;;5091707;28;20329;-83
2021/07/19 03:36:11;;;;;;;4.00;3.43;;;;;;;;;;5091080;28;20211;-83
2021/07/19 03:38:38;;;;;;;3.77;3.40;;;;;;;;;;5073356;28;20194;-82
2021/07/19 03:41:05;;;;;;;6.00;3.33;;;;;;;;;;5073053;28;20277;-83
2021/07/19 03:43:32;;;;;;;4.40;3.07;;;;;;;;;;5073420;28;20674;-83
2021/07/19 03:45:58;;;;;;;4.37;3.47;;;;;;;;;;5072921;28;20319;-83
2021/07/19 03:48:25;;;;;;;3.67;3.37;;;;;;;;;;5091313;28;20571;-82
2021/07/19 03:50:51;;;;;;;3.43;3.07;;;;;;;;;;5072541;28;20543;-82
2021/07/19 03:53:18;;;;;;;4.20;3.42;;;;;;;;;;5072734;28;20447;-83
2021/07/19 03:55:45;;;;;;;3.77;3.37;;;;;;;;;;5069270;28;20707;-83
2021/07/19 03:58:12;;;;;;;3.83;3.43;;;;;;;;;;5070261;28;20179;-83
2021/07/19 04:00:38;;;;;;;4.17;3.77;;;;;;;;;;5069997;28;20596;-83
2021/07/19 04:03:16;;;;;;;3.60;3.30;;;;;;;;;;5069490;28;20179;-83
2021/07/19 04:05:43;;;;;;;4.57;3.87;;;;;;;;;;5086401;28;20175;-82
2021/07/19 04:08:09;;;;;;;5.33;3.57;;;;;;;;;;5069766;28;20191;-82
2021/07/19 04:10:36;;;;;;;4.30;3.67;;;;;;;;;;5072407;28;20181;-82
2021/07/19 04:13:06;;;;;;;3.67;3.37;;;;;;;;;;5074847;28;20166;-83
2021/07/19 04:15:32;;;;;;;4.67;3.63;;;;;;;;;;5073382;28;20168;-83
2021/07/19 04:17:58;;;;;;;5.13;3.80;;;;;;;;;;5073210;28;20170;-83
2021/07/19 04:20:25;;;;;;;4.10;3.80;;;;;;;;;;5090303;28;20212;-83
2021/07/19 04:22:51;;;;;;;3.70;3.40;;;;;;;;;;5090124;28;20173;-83
2021/07/19 04:25:17;;;;;;;5.03;3.67;;;;;;;;;;5090224;28;20197;-83
2021/07/19 04:27:44;;;;;;;4.67;4.10;;;;;;;;;;5073781;28;20184;-82
2021/07/19 04:30:10;;;;;;;5.27;4.10;;;;;;;;;;5073203;28;20175;-83
2021/07/19 04:32:39;;;;;;;3.90;3.50;;;;;;;;;;5073293;28;20177;-83
2021/07/19 04:35:06;;;;;;;4.17;3.80;;;;;;;;;;5074442;28;20631;-83
2021/07/19 04:37:32;;;;;;;4.47;3.97;;;;;;;;;;5073227;28;20168;-83
2021/07/19 04:39:58;;;;;;;5.10;3.67;;;;;;;;;;5074531;28;20172;-83
2021/07/19 04:42:24;;;;;;;4.57;3.93;;;;;;;;;;5075090;28;20165;-83
2021/07/19 04:44:50;;;;;;;5.53;3.30;;;;;;;;;;5096886;28;20192;-82
2021/07/19 04:47:16;;;;;;;4.63;4.13;;;;;;;;;;5076725;28;20263;-82
2021/07/19 04:49:43;;;;;;;4.60;3.93;;;;;;;;;;5095060;28;20695;-83
2021/07/19 04:52:12;;;;;;;4.30;3.60;;;;;;;;;;5076408;28;20580;-82
2021/07/19 04:54:39;;;;;;;5.73;4.13;;;;;;;;;;5087022;28;20223;-82
2021/07/19 04:57:10;;;;;;;5.30;4.40;;;;;;;;;;5074364;28;20169;-82
2021/07/19 04:59:39;;;;;;;6.30;4.30;;;;;;;;;;5056437;28;20631;-82
2021/07/19 05:02:06;;;;;;;4.50;4.10;;;;;;;;;;5074752;28;20191;-83
2021/07/19 05:04:32;;;;;;;5.53;4.47;;;;;;;;;;5056091;28;20208;-83
2021/07/19 05:06:59;;;;;;;8.20;4.50;;;;;;;;;;5055386;28;20245;-83
2021/07/19 05:09:26;;;;;;;6.47;4.27;;;;;;;;;;5074411;28;20177;-82
2021/07/19 05:11:52;;;;;;;5.87;4.40;;;;;;;;;;5055965;28;20176;-83
2021/07/19 05:14:19;;;;;;;8.17;5.23;;;;;;;;;;5056207;28;20181;-83
2021/07/19 05:16:45;;;;;;;5.80;4.30;;;;;;;;;;5055996;28;20724;-82
2021/07/19 05:19:11;;;;;;;7.23;4.37;;;;;;;;;;5056002;28;20219;-82
2021/07/19 05:21:38;;;;;;;8.37;4.90;;;;;;;;;;5054287;28;20259;-82
2021/07/19 05:24:05;;;;;;;5.57;4.47;;;;;;;;;;5056428;28;20570;-83
2021/07/19 05:26:31;;;;;;;5.47;4.83;;;;;;;;;;5055594;28;20173;-82
2021/07/19 05:28:57;;;;;;;8.17;4.60;;;;;;;;;;5055722;28;20646;-82
2021/07/19 05:31:24;;;;;;;7.53;5.13;;;;;;;;;;5056011;28;20226;-82
2021/07/19 05:33:50;;;;;;;5.80;4.67;;;;;;;;;;5055954;28;20189;-83
2021/07/19 05:36:16;;;;;;;7.17;5.47;;;;;;;;;;5055088;28;20311;-82
2021/07/19 05:38:42;;;;;;;5.82;4.90;;;;;;;;;;5055116;28;20904;-82
2021/07/19 05:41:11;;;;;;;5.30;4.80;;;;;;;;;;5073663;28;20234;-83
2021/07/19 05:43:38;;;;;;;5.70;4.73;;;;;;;;;;5055553;28;20204;-83
2021/07/19 05:46:04;;;;;;;6.20;5.20;;;;;;;;;;5055105;28;20180;-82
2021/07/19 05:48:31;;;;;;;5.97;4.93;;;;;;;;;;5055199;28;20261;-83
2021/07/19 05:50:57;;;;;;;6.90;4.73;;;;;;;;;;5055126;28;20169;-83
2021/07/19 05:53:23;;;;;;;7.50;5.57;;;;;;;;;;5055675;28;20628;-83
2021/07/19 05:55:50;;;;;;;5.97;4.83;;;;;;;;;;5054757;28;20228;-83
2021/07/19 05:58:16;;;;;;;6.57;5.07;;;;;;;;;;5055145;28;20177;-82
2021/07/19 06:00:43;;;;;;;6.90;5.57;;;;;;;;;;5055236;28;20653;-83
2021/07/19 06:03:09;;;;;;;8.20;5.60;;;;;;;;;;5055021;28;20192;-83
2021/07/19 06:05:36;;;;;;;6.17;5.50;;;;;;;;;;5073221;28;20619;-83
2021/07/19 06:08:02;;;;;;;7.83;6.20;;;;;;;;;;5072619;28;20684;-83
2021/07/19 06:10:28;;;;;;;9.07;6.37;;;;;;;;;;5072682;28;20181;-83
2021/07/19 06:12:55;;;;;;;6.20;5.20;;;;;;;;;;5056790;28;20185;-81
2021/07/19 06:15:21;;;;;;;8.73;6.57;;;;;;;;;;5058129;28;20181;-80
2021/07/19 06:17:47;;;;;;;6.10;5.43;;;;;;;;;;5057316;28;20530;-81
2021/07/19 06:20:14;;;;;;;7.53;6.13;;;;;;;;;;5056708;28;20499;-80
2021/07/19 06:22:41;;;;;;;8.10;5.93;;;;;;;;;;5055522;28;20189;-81
2021/07/19 06:25:08;;;;;;;7.57;5.60;;;;;;;;;;5074294;28;20283;-81
2021/07/19 06:27:34;;;;;;;7.70;6.20;;;;;;;;;;5057089;28;20599;-81
2021/07/19 06:30:03;;;;;;;8.20;6.03;;;;;;;;;;5061804;28;20174;-81
2021/07/19 06:32:29;;;;;;;7.57;6.23;;;;;;;;;;5061228;28;20188;-80
2021/07/19 06:34:55;;;;;;;10.40;5.83;;;;;;;;;;5057165;28;20172;-80
2021/07/19 06:37:21;;;;;;;7.87;6.23;;;;;;;;;;5058968;28;20181;-81
2021/07/19 06:39:47;;;;;;;8.03;6.20;;;;;;;;;;5061973;28;20193;-81
2021/07/19 06:42:13;;;;;;;6.97;5.43;;;;;;;;;;5061491;28;20180;-81
2021/07/19 06:44:39;;;;;;;9.50;5.90;;;;;;;;;;5079465;28;20204;-80
2021/07/19 06:47:05;;;;;;;7.90;5.60;;;;;;;;;;5079463;28;20164;-80
2021/07/19 06:49:34;;;;;;;7.83;5.97;;;;;;;;;;5080122;28;20184;-81
2021/07/19 06:52:02;;;;;;;6.93;6.13;;;;;;;;;;5060320;28;20185;-81
2021/07/19 06:54:38;;;;;;;7.13;6.47;;;;;;;;;;5084984;28;20231;-81
2021/07/19 06:57:05;;;;;;;7.07;6.03;;;;;;;;;;5080547;28;20171;-81
2021/07/19 06:59:31;;;;;;;8.07;5.80;;;;;;;;;;5080834;28;20184;-81
2021/07/19 07:01:57;;;;;;;7.43;6.63;;;;;;;;;;5081255;28;20202;-81
2021/07/19 07:04:23;;;;;;;9.33;6.80;;;;;;;;;;5098561;28;20734;-80
2021/07/19 07:06:49;;;;;;;7.30;6.27;;;;;;;;;;5079920;28;20219;-81
2021/07/19 07:09:15;;;;;;;9.67;6.67;;;;;;;;;;5079693;28;20203;-81
2021/07/19 07:11:42;;;;;;;6.80;6.10;;;;;;;;;;5079687;28;20176;-80
2021/07/19 07:14:08;;;;;;;7.30;6.60;;;;;;;;;;5080361;28;20669;-80
2021/07/19 07:16:35;;;;;;;9.03;6.10;;;;;;;;;;5082606;28;20207;-81
2021/07/19 07:19:01;;;;;;;8.00;6.00;;;;;;;;;;5077958;28;20186;-80
2021/07/19 07:21:30;;;;;;;8.67;6.77;;;;;;;;;;5054722;28;20191;-80
2021/07/19 07:23:56;;;;;;;8.47;5.87;;;;;;;;;;5055060;28;20204;-80
2021/07/19 07:26:22;;;;;;;8.03;6.37;;;;;;;;;;5055657;28;20176;-80
2021/07/19 07:28:49;;;;;;;7.53;6.37;;;;;;;;;;5055763;28;20221;-80
2021/07/19 07:31:15;;;;;;;10.03;6.33;;;;;;;;;;5055266;28;20169;-80
2021/07/19 07:33:41;;;;;;;6.97;6.13;;;;;;;;;;5054964;28;20276;-80
2021/07/19 07:36:08;;;;;;;7.97;6.00;;;;;;;;;;5054551;28;20176;-80
2021/07/19 07:38:35;;;;;;;8.33;6.63;;;;;;;;;;5072877;28;20180;-80
2021/07/19 07:41:01;;;;;;;6.57;5.97;;;;;;;;;;5055601;28;20181;-80
2021/07/19 07:43:27;;;;;;;7.43;6.47;;;;;;;;;;5073271;28;20516;-80
2021/07/19 07:45:53;;;;;;;7.37;6.30;;;;;;;;;;5059011;28;20677;-80
2021/07/19 07:48:19;;;;;;;8.10;6.97;;;;;;;;;;5078028;28;20160;-80
2021/07/19 07:50:46;;;;;;;7.60;6.10;;;;;;;;;;5059334;28;20631;-80
2021/07/19 07:53:12;;;;;;;8.73;6.57;;;;;;;;;;5059475;28;20173;-80
2021/07/19 07:55:38;;;;;;;9.43;6.77;;;;;;;;;;5074453;28;20219;-81
2021/07/19 07:58:07;;;;;;;8.27;6.07;;;;;;;;;;5079040;28;20292;-80
2021/07/19 08:00:33;;;;;;;8.60;6.53;;;;;;;;;;5078698;28;20191;-80
2021/07/19 08:02:59;;;;;;;7.27;6.57;;;;;;;;;;5080313;28;20187;-80
2021/07/19 08:05:25;;;;;;;8.13;7.07;;;;;;;;;;5079526;28;20195;-80
2021/07/19 08:07:51;;;;;;;7.13;6.43;;;;;;;;;;5079068;28;20200;-80
2021/07/19 08:10:18;;;;;;;7.23;6.23;;;;;;;;;;5079220;28;20213;-80
2021/07/19 08:12:44;;;;;;;6.77;6.07;;;;;;;;;;5097202;28;20533;-81
2021/07/19 08:15:11;;;;;;;8.00;7.20;;;;;;;;;;5078461;28;20171;-80
2021/07/19 08:17:37;;;;;;;8.93;6.73;;;;;;;;;;5096930;28;20298;-80
2021/07/19 08:20:04;;;;;;;8.57;6.67;;;;;;;;;;5096937;28;20250;-80
2021/07/19 08:22:31;;;;;;;8.10;6.70;;;;;;;;;;5078187;28;20298;-81
2021/07/19 08:24:58;;;;;;;7.37;6.67;;;;;;;;;;5078491;28;20292;-81
2021/07/19 08:27:24;;;;;;;8.80;6.57;;;;;;;;;;5096966;28;20180;-80
2021/07/19 08:29:50;;;;;;;8.03;7.23;;;;;;;;;;5079283;28;20522;-80
2021/07/19 08:32:17;;;;;;;8.67;7.37;;;;;;;;;;5097188;28;20559;-80
2021/07/19 08:34:46;;;;;;;7.97;7.17;;;;;;;;;;5078708;28;20296;-81
2021/07/19 08:37:13;;;;;;;7.43;6.70;;;;;;;;;;5077958;28;20646;-80
2021/07/19 08:39:40;;;;;;;7.43;6.67;;;;;;;;;;5081109;28;20268;-81
2021/07/19 08:42:10;;;;;;;8.17;7.07;;;;;;;;;;5083573;28;20181;-81
2021/07/19 08:44:36;;;;;;;7.60;6.70;;;;;;;;;;5099871;28;20211;-80
2021/07/19 08:47:03;;;;;;;9.10;6.93;;;;;;;;;;5076568;28;20173;-81
2021/07/19 08:49:31;;;;;;;11.00;7.10;;;;;;;;;;5078027;28;20273;-81
2021/07/19 08:51:58;;;;;;;7.90;7.13;;;;;;;;;;5095410;28;20609;-80
2021/07/19 08:54:26;;;;;;;9.00;7.37;;;;;;;;;;5074725;28;20227;-80
2021/07/19 08:56:53;;;;;;;7.50;6.63;;;;;;;;;;5074145;28;20197;-80
2021/07/19 08:59:19;;;;;;;10.13;7.43;;;;;;;;;;5074529;28;20182;-81
2021/07/19 09:01:46;;;;;;;8.97;7.60;;;;;;;;;;5075075;28;20182;-81
2021/07/19 09:04:16;;;;;;;13.77;8.37;;;;;;;;;;5074570;28;20196;-81
2021/07/19 09:06:42;;;;;;;10.53;8.27;;;;;;;;;;5074434;28;20318;-81
2021/07/19 09:09:08;;;;;;;10.47;8.13;;;;;;;;;;5075084;28;20649;-80
2021/07/19 09:11:34;;;;;;;10.00;9.00;;;;;;;;;;5076125;28;20174;-80
2021/07/19 09:14:01;;;;;;;9.87;8.87;;;;;;;;;;5074640;28;20179;-80
2021/07/19 09:16:38;;;;;;;11.53;8.80;;;;;;;;;;5074040;28;20540;-80
2021/07/19 09:19:05;;;;;;;10.27;8.57;;;;;;;;;;5075252;28;20242;-80
2021/07/19 09:21:31;;;;;;;8.80;7.63;;;;;;;;;;5073196;28;20176;-79
2021/07/19 09:24:08;;;;;;;12.03;8.37;;;;;;;;;;5071685;28;20201;-81
2021/07/19 09:26:35;;;;;;;10.67;8.20;;;;;;;;;;5074093;28;20259;-80
2021/07/19 09:29:01;;;;;;;10.67;8.27;;;;;;;;;;5071937;28;20179;-81
2021/07/19 09:31:38;;;;;;;9.07;7.57;;;;;;;;;;5071615;28;20177;-81
2021/07/19 09:34:05;;;;;;;8.07;7.27;;;;;;;;;;5072208;28;20191;-81
2021/07/19 09:36:31;;;;;;;10.33;8.03;;;;;;;;;;5072690;28;20165;-81
2021/07/19 09:39:05;;;;;;;9.27;7.47;;;;;;;;;;5071840;28;20172;-81
2021/07/19 09:41:31;;;;;;;9.50;7.70;;;;;;;;;;5073578;28;20500;-81
2021/07/19 09:43:57;;;;;;;10.17;7.20;;;;;;;;;;5072961;28;20252;-81
2021/07/19 09:46:32;;;;;;;15.30;8.40;;;;;;;;;;5072814;28;20180;-81
2021/07/19 09:48:58;;;;;;;12.30;8.17;;;;;;;;;;5074525;28;20172;-81
2021/07/19 09:51:32;;;;;;;9.40;7.40;;;;;;;;;;5073128;28;20266;-80
2021/07/19 09:54:08;;;;;;;8.87;7.97;;;;;;;;;;5071765;28;20176;-81
2021/07/19 09:56:34;;;;;;;9.60;8.60;;;;;;;;;;5073363;28;20173;-80
2021/07/19 09:59:13;;;;;;;11.23;8.20;;;;;;;;;;5054200;28;20234;-81
2021/07/19 10:01:43;;;;;;;11.37;9.07;;;;;;;;;;5073002;28;20207;-81
2021/07/19 10:04:09;;;;;;;9.30;7.90;;;;;;;;;;5055357;28;20677;-81
2021/07/19 10:06:36;;;;;;;10.43;9.37;;;;;;;;;;5054823;28;20454;-80
2021/07/19 10:09:05;;;;;;;9.60;7.53;;;;;;;;;;5056842;28;20259;-81
2021/07/19 10:11:32;;;;;;;11.37;8.23;;;;;;;;;;5056754;28;20177;-80
2021/07/19 10:13:58;;;;;;;9.87;8.10;;;;;;;;;;5074326;28;20173;-81
2021/07/19 10:16:31;;;;;;;9.97;8.37;;;;;;;;;;5056821;28;20185;-81
2021/07/19 10:18:58;;;;;;;12.43;8.83;;;;;;;;;;5074771;28;20225;-81
2021/07/19 10:21:29;;;;;;;10.90;8.80;;;;;;;;;;5055410;28;20191;-81
2021/07/19 10:24:01;;;;;;;12.73;8.30;;;;;;;;;;5073647;28;20193;-81
2021/07/19 10:26:28;;;;;;;9.90;8.13;;;;;;;;;;5073978;28;20197;-81
2021/07/19 10:28:54;;;;;;;10.17;8.03;;;;;;;;;;5056406;28;20177;-81
2021/07/19 10:31:20;;;;;;;9.33;7.90;;;;;;;;;;5056110;28;20229;-81
2021/07/19 10:33:47;;;;;;;11.50;9.10;;;;;;;;;;5057326;28;20602;-81
2021/07/19 10:36:15;;;;;;;10.70;8.63;;;;;;;;;;5055991;28;20307;-81
2021/07/19 10:38:41;;;;;;;9.43;8.40;;;;;;;;;;5055922;28;20177;-81
2021/07/19 10:41:08;;;;;;;10.33;8.33;;;;;;;;;;5055780;28;20181;-81
2021/07/19 10:43:34;;;;;;;10.07;7.80;;;;;;;;;;5055970;28;20170;-81
2021/07/19 10:46:11;;;;;;;9.97;8.70;;;;;;;;;;5073409;28;20169;-82
2021/07/19 10:48:37;;;;;;;9.67;8.37;;;;;;;;;;5056275;28;20173;-82
2021/07/19 10:51:20;;;;;;;11.47;9.00;;;;;;;;;;5055689;28;20322;-82
2021/07/19 10:53:47;;;;;;;9.40;8.37;;;;;;;;;;5074465;28;20171;-82
2021/07/19 10:56:13;;;;;;;11.37;9.30;;;;;;;;;;5074844;28;20169;-82
2021/07/19 10:58:39;;;;;;;11.30;9.30;;;;;;;;;;5057061;28;20177;-82
2021/07/19 11:01:06;;;;;;;10.17;8.90;;;;;;;;;;5057094;28;20187;-81
2021/07/19 11:03:41;;;;;;;11.03;9.37;;;;;;;;;;5055930;28;20180;-82
2021/07/19 11:06:07;;;;;;;11.63;8.93;;;;;;;;;;5057035;28;20175;-82
2021/07/19 11:08:34;;;;;;;11.10;8.70;;;;;;;;;;5056976;28;20168;-82
2021/07/19 11:11:00;;;;;;;10.93;8.97;;;;;;;;;;5058997;28;20173;-83
2021/07/19 11:13:29;;;;;;;10.93;8.90;;;;;;;;;;5076109;28;20534;-82
2021/07/19 11:15:56;;;;;;;11.93;9.70;;;;;;;;;;5058941;28;20192;-82
2021/07/19 11:18:25;;;;;;;11.77;8.90;;;;;;;;;;5076591;28;20180;-82
2021/07/19 11:20:51;;;;;;;11.10;8.33;;;;;;;;;;5057322;28;20242;-82
2021/07/19 11:23:27;;;;;;;10.83;8.63;;;;;;;;;;5059089;28;20223;-82
2021/07/19 11:25:53;;;;;;;12.13;8.80;;;;;;;;;;5059256;28;20631;-82
2021/07/19 11:28:20;;;;;;;9.97;8.97;;;;;;;;;;5077532;28;20236;-82
2021/07/19 11:31:03;;;;;;;8.97;7.87;;;;;;;;;;5076683;28;20180;-82
2021/07/19 11:33:37;;;;;;;11.97;9.07;;;;;;;;;;5059546;28;20505;-82
2021/07/19 11:36:04;;;;;;;9.53;8.20;;;;;;;;;;5059146;28;20172;-82
2021/07/19 11:38:37;;;;;;;9.63;8.67;;;;;;;;;;5059992;28;20179;-82
2021/07/19 11:41:16;;;;;;;10.50;8.57;;;;;;;;;;5059460;28;20174;-81
2021/07/19 11:43:43;;;;;;;10.10;8.67;;;;;;;;;;5059137;28;20293;-81
2021/07/19 11:46:09;;;;;;;10.23;9.13;;;;;;;;;;5058460;28;20184;-82
2021/07/19 11:48:36;;;;;;;16.47;11.13;;;;;;;;;;5058475;28;20226;-82
2021/07/19 11:51:02;;;;;;;11.77;8.47;;;;;;;;;;5057872;28;20663;-81
2021/07/19 11:53:29;;;;;;;10.63;9.17;;;;;;;;;;5059096;28;20621;-81
2021/07/19 11:55:55;;;;;;;11.20;8.70;;;;;;;;;;5076201;28;20227;-81
2021/07/19 11:58:21;;;;;;;11.33;9.57;;;;;;;;;;5076828;28;20178;-81
2021/07/19 12:00:47;;;;;;;12.00;9.57;;;;;;;;;;5058926;28;20178;-82
2021/07/19 12:03:14;;;;;;;12.03;8.63;;;;;;;;;;5058572;28;20197;-82
2021/07/19 12:05:50;;;;;;;12.63;9.80;;;;;;;;;;5058299;28;20204;-82
2021/07/19 12:08:17;;;;;;;11.67;9.20;;;;;;;;;;5058787;28;20204;-81
2021/07/19 12:10:43;;;;;;;10.63;8.37;;;;;;;;;;5076885;28;20166;-82
2021/07/19 12:13:11;;;;;;;11.20;8.87;;;;;;;;;;5059186;28;20178;-82
2021/07/19 12:15:38;;;;;;;10.40;8.17;;;;;;;;;;5058245;28;20178;-81
2021/07/19 12:18:05;;;;;;;9.33;8.30;;;;;;;;;;5059213;28;20213;-81
2021/07/19 12:20:34;;;;;;;10.73;8.77;;;;;;;;;;5058867;28;20235;-81
2021/07/19 12:23:00;;;;;;;12.37;8.40;;;;;;;;;;5075933;28;20169;-81
2021/07/19 12:25:26;;;;;;;10.57;8.60;;;;;;;;;;5057668;28;20206;-81
2021/07/19 12:27:59;;;;;;;10.20;9.10;;;;;;;;;;5057713;28;20199;-81
2021/07/19 12:30:26;;;;;;;11.23;9.43;;;;;;;;;;5059294;28;20180;-81
2021/07/19 12:32:52;;;;;;;10.93;9.47;;;;;;;;;;5062693;28;20177;-81
2021/07/19 12:35:23;;;;;;;12.97;9.57;;;;;;;;;;5061696;28;20179;-81
2021/07/19 12:37:53;;;;;;;11.37;9.87;;;;;;;;;;5079912;28;20162;-81
2021/07/19 12:40:19;;;;;;;9.90;8.90;;;;;;;;;;5060055;28;20183;-81
2021/07/19 12:42:46;;;;;;;13.33;10.57;;;;;;;;;;5058837;28;20170;-81
2021/07/19 12:45:12;;;;;;;10.27;9.20;;;;;;;;;;5057342;28;20211;-81
2021/07/19 12:47:38;;;;;;;16.17;11.17;;;;;;;;;;5075976;28;20625;-81
2021/07/19 12:50:06;;;;;;;17.40;11.53;;;;;;;;;;5075722;28;20176;-80
2021/07/19 12:52:32;;;;;;;13.30;10.57;;;;;;;;;;5058532;28;20250;-81
2021/07/19 12:55:01;;;;;;;12.20;10.40;;;;;;;;;;5075470;28;20695;-81
2021/07/19 12:57:28;;;;;;;14.23;10.97;;;;;;;;;;5058833;28;20187;-81
2021/07/19 12:59:55;;;;;;;12.53;10.43;;;;;;;;;;5058059;28;20180;-80
2021/07/19 13:02:21;;;;;;;13.27;10.63;;;;;;;;;;5075919;28;20179;-81
2021/07/19 13:04:50;;;;;;;12.63;11.13;;;;;;;;;;5057532;28;20205;-81
2021/07/19 13:07:32;;;;;;;13.13;11.83;;;;;;;;;;5075550;28;20193;-81
2021/07/19 13:09:59;;;;;;;14.17;12.23;;;;;;;;;;5075824;28;20169;-81
2021/07/19 13:12:25;;;;;;;11.40;10.20;;;;;;;;;;5075493;28;20167;-81
2021/07/19 13:14:51;;;;;;;16.50;12.13;;;;;;;;;;5056755;28;20947;-81
2021/07/19 13:17:26;;;;;;;12.93;10.10;;;;;;;;;;5056928;28;20173;-80
2021/07/19 13:19:54;;;;;;;15.93;10.23;;;;;;;;;;5055962;28;20190;-81
2021/07/19 13:22:21;;;;;;;12.30;10.10;;;;;;;;;;5055090;28;20248;-81
2021/07/19 13:24:49;;;;;;;16.60;10.10;;;;;;;;;;5072906;28;20237;-81
2021/07/19 13:27:16;;;;;;;14.80;10.27;;;;;;;;;;5055397;28;20191;-81
2021/07/19 13:30:02;;;;;;;11.00;9.63;;;;;;;;;;5072805;28;20273;-81
2021/07/19 13:32:28;;;;;;;11.67;9.53;;;;;;;;;;5073025;28;20181;-81
2021/07/19 13:34:59;;;;;;;10.70;9.13;;;;;;;;;;5055724;28;20188;-81
2021/07/19 13:37:25;;;;;;;12.43;9.47;;;;;;;;;;5074843;28;20179;-81
2021/07/19 13:39:52;;;;;;;10.17;8.97;;;;;;;;;;5057303;28;20184;-81
2021/07/19 13:42:21;;;;;;;11.73;9.40;;;;;;;;;;5056833;28;20181;-81
2021/07/19 13:44:50;;;;;;;13.17;10.00;;;;;;;;;;5057773;28;20212;-81
2021/07/19 13:47:16;;;;;;;15.80;8.63;;;;;;;;;;5057154;28;20192;-81
2021/07/19 13:49:42;;;;;;;12.15;9.88;;;;;;;;;;5055991;28;20417;-81
2021/07/19 13:52:08;;;;;;;10.07;9.07;;;;;;;;;;5056387;28;20173;-81
2021/07/19 13:54:34;;;;;;;10.50;9.17;;;;;;;;;;5063943;28;20227;-81
2021/07/19 13:57:01;;;;;;;14.57;10.93;;;;;;;;;;5076411;28;20173;-81
2021/07/19 13:59:27;;;;;;;15.83;11.13;;;;;;;;;;5110404;28;20518;-81
2021/07/19 14:01:54;;;;;;;11.10;9.67;;;;;;;;;;5110227;28;20225;-81
2021/07/19 14:04:21;;;;;;;10.63;9.13;;;;;;;;;;5109931;28;20302;-81
2021/07/19 14:06:47;;;;;;;10.90;9.80;;;;;;;;;;5109437;28;20203;-81
2021/07/19 14:09:13;;;;;;;12.57;10.87;;;;;;;;;;5110165;28;20606;-81
2021/07/19 14:11:40;;;;;;;13.87;10.00;;;;;;;;;;5109336;28;20179;-81
2021/07/19 14:14:06;;;;;;;12.13;9.57;;;;;;;;;;5110733;28;20180;-81
2021/07/19 14:16:33;;;;;;;16.53;11.60;;;;;;;;;;5110392;28;20182;-81
2021/07/19 14:18:59;;;;;;;14.13;11.03;;;;;;;;;;5110673;28;20617;-81
2021/07/19 14:21:25;;;;;;;12.57;11.17;;;;;;;;;;5109685;28;20183;-81
2021/07/19 14:23:52;;;;;;;13.00;10.00;;;;;;;;;;5110446;28;20269;-80
2021/07/19 14:26:18;;;;;;;12.53;10.73;;;;;;;;;;5110457;28;20203;-81
2021/07/19 14:28:44;;;;;;;12.60;10.60;;;;;;;;;;5110355;28;20176;-81
2021/07/19 14:31:10;;;;;;;13.93;10.63;;;;;;;;;;5094880;28;20179;-81
2021/07/19 14:33:36;;;;;;;13.23;11.57;;;;;;;;;;5110102;28;20208;-81
2021/07/19 14:36:02;;;;;;;13.13;10.77;;;;;;;;;;5109722;28;20194;-81
2021/07/19 14:38:28;;;;;;;13.93;10.97;;;;;;;;;;5109968;28;20539;-81
2021/07/19 14:40:55;;;;;;;14.13;10.93;;;;;;;;;;5110386;28;20186;-81